Time;durP1;ratioP1;P1;durP2;ratioP2;P2;SDS_P1;SDS_P2;PMS_P1;PMS_P2;Temp;Humidity;BMP_temperature;BMP_pressure;BME280_temperature;BME280_humidity;BME280_pressure;Samples;Min_cycle;Max_cycle;Signal;HPM_P1;HPM_P2
2021/07/13 00:00:29;;;;;;;5.43;3.80;;;19.20;99.90;;;;;;5052348;28;20444;-66
2021/07/13 00:02:56;;;;;;;6.17;3.50;;;19.20;99.90;;;;;;5053125;28;20490;-67
2021/07/13 00:05:24;;;;;;;4.73;3.70;;;19.20;99.90;;;;;;5053046;28;20491;-66
2021/07/13 00:07:53;;;;;;;4.60;3.67;;;19.10;99.90;;;;;;5053522;28;20439;-66
2021/07/13 00:10:24;;;;;;;4.23;3.30;;;19.10;99.90;;;;;;5052978;28;20527;-70
2021/07/13 00:12:52;;;;;;;4.97;3.33;;;19.10;99.90;;;;;;5053150;28;20497;-66
2021/07/13 00:15:22;;;;;;;8.53;3.50;;;19.10;99.90;;;;;;5052820;28;20439;-66
2021/07/13 00:17:49;;;;;;;4.70;3.20;;;19.10;99.90;;;;;;5053342;28;20439;-65
2021/07/13 00:20:16;;;;;;;3.83;2.90;;;19.10;99.90;;;;;;5052721;28;20534;-66
2021/07/13 00:22:43;;;;;;;5.20;2.93;;;19.10;99.90;;;;;;5053071;28;20463;-66
2021/07/13 00:25:12;;;;;;;5.27;3.20;;;19.10;99.90;;;;;;5052852;28;20454;-66
2021/07/13 00:27:40;;;;;;;4.40;3.07;;;19.20;99.90;;;;;;5052654;28;21032;-64
2021/07/13 00:30:09;;;;;;;4.47;2.70;;;19.10;99.90;;;;;;5052669;28;20458;-66
2021/07/13 00:32:36;;;;;;;4.53;2.30;;;19.10;99.90;;;;;;5052904;28;20474;-66
2021/07/13 00:35:04;;;;;;;3.60;2.30;;;19.00;99.90;;;;;;5052737;28;20458;-68
2021/07/13 00:37:31;;;;;;;4.30;2.30;;;19.00;99.90;;;;;;5052729;28;20443;-67
2021/07/13 00:39:58;;;;;;;4.23;2.33;;;19.00;99.90;;;;;;5052403;28;21043;-66
2021/07/13 00:42:25;;;;;;;5.30;2.50;;;18.90;99.90;;;;;;5052394;28;20479;-65
2021/07/13 00:44:53;;;;;;;4.13;2.23;;;18.90;99.90;;;;;;5052783;28;20454;-66
2021/07/13 00:47:22;;;;;;;4.40;2.40;;;18.80;99.90;;;;;;5052322;28;20487;-64
2021/07/13 00:49:50;;;;;;;6.00;3.33;;;18.80;99.90;;;;;;5052344;28;20501;-65
2021/07/13 00:52:18;;;;;;;4.60;2.43;;;18.80;99.90;;;;;;5052768;28;20551;-67
2021/07/13 00:54:49;;;;;;;3.97;2.43;;;18.80;99.90;;;;;;5052403;28;20546;-68
2021/07/13 00:57:19;;;;;;;4.97;2.77;;;18.80;99.90;;;;;;5052672;28;20534;-66
2021/07/13 00:59:47;;;;;;;4.10;2.70;;;18.80;99.90;;;;;;5052144;28;20444;-66
2021/07/13 01:02:17;;;;;;;4.53;3.00;;;18.80;99.90;;;;;;5052253;28;20878;-68
2021/07/13 01:04:48;;;;;;;8.93;3.57;;;18.80;99.90;;;;;;5052227;28;20448;-68
2021/07/13 01:07:21;;;;;;;7.83;4.10;;;18.80;99.90;;;;;;5052141;28;20864;-66
2021/07/13 01:09:58;;;;;;;7.43;4.87;;;18.80;99.90;;;;;;5051661;28;21070;-67
2021/07/13 01:12:36;;;;;;;5.70;4.80;;;18.80;99.90;;;;;;5052227;28;20466;-66
2021/07/13 01:15:05;;;;;;;6.60;5.30;;;18.80;99.90;;;;;;5052256;28;20447;-67
2021/07/13 01:17:36;;;;;;;7.33;5.30;;;18.70;99.90;;;;;;5052011;28;20539;-65
2021/07/13 01:20:33;;;;;;;8.10;4.90;;;18.70;99.90;;;;;;5052158;28;20456;-68
2021/07/13 01:23:13;;;;;;;6.53;4.90;;;18.70;99.90;;;;;;5055110;28;20470;-65
2021/07/13 01:25:43;;;;;;;5.13;4.20;;;18.70;99.90;;;;;;5051973;28;20444;-66
2021/07/13 01:28:15;;;;;;;7.03;4.20;;;18.70;99.90;;;;;;5051490;28;20487;-64
2021/07/13 01:30:44;;;;;;;5.10;4.07;;;18.70;99.90;;;;;;5051741;28;20458;-65
2021/07/13 01:33:14;;;;;;;4.50;4.00;;;18.80;99.90;;;;;;5051600;28;20579;-67
2021/07/13 01:35:46;;;;;;;4.43;3.43;;;18.80;99.90;;;;;;5051671;28;20550;-67
2021/07/13 01:38:15;;;;;;;5.13;4.03;;;18.80;99.90;;;;;;5051826;28;20466;-65
2021/07/13 01:40:50;;;;;;;7.47;3.83;;;18.90;99.90;;;;;;5051279;28;20444;-66
2021/07/13 01:43:19;;;;;;;4.00;3.20;;;18.90;99.90;;;;;;5051813;28;20460;-66
2021/07/13 01:45:47;;;;;;;3.90;3.20;;;18.90;99.90;;;;;;5051353;28;20968;-66
2021/07/13 01:48:14;;;;;;;4.23;3.50;;;18.90;99.90;;;;;;5051058;28;21233;-67
2021/07/13 01:50:43;;;;;;;5.47;4.10;;;19.00;99.90;;;;;;5051075;28;20549;-65
2021/07/13 01:53:12;;;;;;;5.90;3.30;;;19.00;99.90;;;;;;5051200;28;20478;-68
2021/07/13 01:55:40;;;;;;;4.60;3.70;;;19.00;99.90;;;;;;5051485;28;20868;-66
2021/07/13 01:58:07;;;;;;;5.20;3.60;;;18.90;99.90;;;;;;5051726;28;20448;-66
2021/07/13 02:00:37;;;;;;;8.63;5.47;;;18.90;99.90;;;;;;5051038;28;20527;-67
2021/07/13 02:03:06;;;;;;;6.20;4.67;;;18.80;99.90;;;;;;5051243;28;20516;-63
2021/07/13 02:05:35;;;;;;;6.10;4.33;;;18.60;99.90;;;;;;5051080;28;20463;-66
2021/07/13 02:08:05;;;;;;;6.90;5.03;;;18.60;99.90;;;;;;5051058;28;20483;-65
2021/07/13 02:10:34;;;;;;;6.20;4.30;;;18.60;99.90;;;;;;5051044;28;20823;-66
2021/07/13 02:13:01;;;;;;;7.77;5.20;;;18.50;99.90;;;;;;5050763;28;20547;-65
2021/07/13 02:15:28;;;;;;;9.87;4.70;;;18.40;99.90;;;;;;5051091;28;21081;-66
2021/07/13 02:17:56;;;;;;;8.87;4.57;;;18.40;99.90;;;;;;5050700;28;20466;-66
2021/07/13 02:20:24;;;;;;;5.50;4.60;;;18.30;99.90;;;;;;5050682;28;20448;-66
2021/07/13 02:22:51;;;;;;;5.37;3.73;;;18.30;99.90;;;;;;5050274;28;20459;-65
2021/07/13 02:25:18;;;;;;;4.93;3.90;;;18.20;99.90;;;;;;5050810;28;20535;-66
2021/07/13 02:27:53;;;;;;;6.80;4.30;;;18.10;99.90;;;;;;5050846;28;20476;-65
2021/07/13 02:30:20;;;;;;;5.97;4.03;;;18.10;99.90;;;;;;5050391;28;20447;-68
2021/07/13 02:32:50;;;;;;;7.83;3.93;;;18.10;99.90;;;;;;5050674;28;20550;-64
2021/07/13 02:35:20;;;;;;;4.70;3.70;;;18.00;99.90;;;;;;5051015;28;20452;-65
2021/07/13 02:37:48;;;;;;;7.20;3.87;;;18.00;99.90;;;;;;5051028;28;20440;-65
2021/07/13 02:40:17;;;;;;;7.03;3.87;;;18.00;99.90;;;;;;5050574;28;20502;-65
2021/07/13 02:42:45;;;;;;;5.60;3.00;;;18.00;99.90;;;;;;5050766;28;20567;-65
2021/07/13 02:45:14;;;;;;;4.77;2.97;;;17.90;99.90;;;;;;5050201;28;20879;-64
2021/07/13 02:47:43;;;;;;;7.37;3.10;;;17.80;99.90;;;;;;5050517;28;20845;-69
2021/07/13 02:50:12;;;;;;;5.43;3.37;;;17.80;99.90;;;;;;5051403;28;20455;-66
2021/07/13 02:52:41;;;;;;;5.73;3.50;;;17.80;99.90;;;;;;5050258;28;20475;-68
2021/07/13 02:55:12;;;;;;;7.07;3.60;;;17.80;99.90;;;;;;5050258;28;20451;-66
2021/07/13 02:57:40;;;;;;;5.43;3.43;;;17.70;99.90;;;;;;5050081;28;20445;-68
2021/07/13 03:00:10;;;;;;;7.23;3.10;;;17.70;99.90;;;;;;5049897;28;20447;-67
2021/07/13 03:02:39;;;;;;;5.17;3.37;;;17.80;99.90;;;;;;5050137;28;20472;-66
2021/07/13 03:05:07;;;;;;;5.83;3.60;;;17.70;99.90;;;;;;5050506;28;20447;-66
2021/07/13 03:07:34;;;;;;;4.50;3.43;;;17.70;99.90;;;;;;5050106;28;20550;-65
2021/07/13 03:10:03;;;;;;;5.83;3.80;;;17.60;99.90;;;;;;5049876;28;20447;-65
2021/07/13 03:12:31;;;;;;;6.10;4.10;;;17.60;99.90;;;;;;5050390;28;20851;-65
2021/07/13 03:14:59;;;;;;;7.77;4.00;;;17.60;99.90;;;;;;5050421;28;20452;-65
2021/07/13 03:17:28;;;;;;;37.00;8.60;;;17.60;99.90;;;;;;5050379;28;20543;-65
2021/07/13 03:19:55;;;;;;;8.40;4.37;;;17.60;99.90;;;;;;5049875;28;20452;-67
2021/07/13 03:22:24;;;;;;;7.30;5.37;;;17.60;99.90;;;;;;5050374;28;20867;-68
2021/07/13 03:24:52;;;;;;;11.40;5.60;;;17.60;99.90;;;;;;5050589;28;20443;-66
2021/07/13 03:27:22;;;;;;;7.90;5.77;;;17.70;99.90;;;;;;5050194;28;20490;-67
2021/07/13 03:29:51;;;;;;;7.60;4.93;;;17.80;99.90;;;;;;5049691;28;20999;-66
2021/07/13 03:32:19;;;;;;;11.10;5.53;;;17.80;99.90;;;;;;5050156;28;20552;-66
2021/07/13 03:34:49;;;;;;;7.47;5.90;;;17.70;99.90;;;;;;5053659;28;20447;-69
2021/07/13 03:37:16;;;;;;;9.10;5.37;;;17.60;99.90;;;;;;5054331;28;20444;-67
2021/07/13 03:39:44;;;;;;;7.20;6.20;;;17.60;99.90;;;;;;5053971;28;20474;-66
2021/07/13 03:42:12;;;;;;;11.10;6.40;;;17.60;99.90;;;;;;5054110;28;20472;-66
2021/07/13 03:44:41;;;;;;;10.80;6.60;;;17.70;99.90;;;;;;5054083;28;20946;-65
2021/07/13 03:47:12;;;;;;;7.60;5.60;;;17.80;99.90;;;;;;5054044;28;20502;-66
2021/07/13 03:49:39;;;;;;;7.23;5.60;;;17.80;99.90;;;;;;5053609;28;20447;-66
2021/07/13 03:52:07;;;;;;;8.00;5.63;;;17.80;99.90;;;;;;5053547;28;20905;-66
2021/07/13 03:54:34;;;;;;;9.13;7.13;;;17.90;99.90;;;;;;5053828;28;20803;-69
2021/07/13 03:57:01;;;;;;;61.50;16.40;;;17.90;99.90;;;;;;5053784;28;20440;-67
2021/07/13 03:59:28;;;;;;;8.23;7.27;;;18.00;99.90;;;;;;5053270;28;20443;-68
2021/07/13 04:01:56;;;;;;;14.43;8.73;;;18.00;99.90;;;;;;5053431;28;20463;-65
2021/07/13 04:04:23;;;;;;;11.57;7.60;;;18.00;99.90;;;;;;5053881;28;20526;-66
2021/07/13 04:06:50;;;;;;;9.33;7.20;;;18.00;99.90;;;;;;5053966;28;20450;-66
2021/07/13 04:09:17;;;;;;;6.60;5.90;;;17.90;99.90;;;;;;5053136;28;20477;-65
2021/07/13 04:11:45;;;;;;;9.87;7.57;;;17.80;99.90;;;;;;5053274;28;21156;-66
2021/07/13 04:14:12;;;;;;;11.73;9.40;;;17.70;99.90;;;;;;5053314;28;20447;-65
2021/07/13 04:16:39;;;;;;;10.47;7.70;;;17.70;99.90;;;;;;5055151;28;20431;-66
2021/07/13 04:19:07;;;;;;;10.47;8.00;;;17.70;99.90;;;;;;5055733;28;20950;-65
2021/07/13 04:21:34;;;;;;;13.40;10.43;;;17.70;99.90;;;;;;5053466;28;20442;-66
2021/07/13 04:24:01;;;;;;;14.87;10.47;;;17.80;99.90;;;;;;5053316;28;20448;-66
2021/07/13 04:26:28;;;;;;;9.67;8.60;;;17.80;99.90;;;;;;5053159;28;20808;-67
2021/07/13 04:28:55;;;;;;;11.80;8.47;;;17.80;99.90;;;;;;5053304;28;20575;-65
2021/07/13 04:31:22;;;;;;;9.77;8.70;;;17.80;99.90;;;;;;5052831;28;20530;-66
2021/07/13 04:33:49;;;;;;;14.60;9.40;;;17.80;99.90;;;;;;5053078;28;20535;-65
2021/07/13 04:36:17;;;;;;;11.63;9.00;;;17.90;99.90;;;;;;5052904;28;20805;-67
2021/07/13 04:38:44;;;;;;;11.80;8.27;;;17.80;99.90;;;;;;5052760;28;20440;-65
2021/07/13 04:41:11;;;;;;;8.90;8.00;;;17.90;99.90;;;;;;5052901;28;20444;-67
2021/07/13 04:43:38;;;;;;;11.70;8.57;;;17.90;99.90;;;;;;5052285;28;20456;-67
2021/07/13 04:46:05;;;;;;;7.90;7.10;;;18.00;99.90;;;;;;5051840;28;20436;-66
2021/07/13 04:48:31;;;;;;;21.03;9.37;;;18.00;99.90;;;;;;5052201;28;20475;-71
2021/07/13 04:50:58;;;;;;;7.80;6.80;;;18.10;99.90;;;;;;5052164;28;21306;-71
2021/07/13 04:53:26;;;;;;;10.03;5.57;;;18.20;99.90;;;;;;5052137;28;20555;-65
2021/07/13 04:55:53;;;;;;;8.63;5.50;;;18.20;99.90;;;;;;5052233;28;20452;-66
2021/07/13 04:58:20;;;;;;;18.03;6.93;;;18.40;99.90;;;;;;5052263;28;20439;-67
2021/07/13 05:00:47;;;;;;;5.10;4.00;;;18.50;99.90;;;;;;5051992;28;20448;-65
2021/07/13 05:03:15;;;;;;;5.90;4.27;;;18.50;99.90;;;;;;5052183;28;20563;-66
2021/07/13 05:05:41;;;;;;;5.40;4.07;;;18.50;99.90;;;;;;5051973;28;20459;-65
2021/07/13 05:08:08;;;;;;;5.23;3.20;;;18.60;99.90;;;;;;5051950;28;20586;-66
2021/07/13 05:10:36;;;;;;;5.57;3.70;;;18.50;99.90;;;;;;5051606;28;21040;-65
2021/07/13 05:13:09;;;;;;;6.73;3.77;;;18.50;99.90;;;;;;5051788;28;20468;-66
2021/07/13 05:15:36;;;;;;;6.60;4.20;;;18.60;99.90;;;;;;5051868;28;20945;-65
2021/07/13 05:18:03;;;;;;;8.27;4.30;;;18.70;99.90;;;;;;5052328;28;20480;-66
2021/07/13 05:20:30;;;;;;;4.80;3.73;;;18.80;99.90;;;;;;5051506;28;20539;-64
2021/07/13 05:23:00;;;;;;;6.20;4.27;;;18.90;99.90;;;;;;5051023;28;20516;-66
2021/07/13 05:25:27;;;;;;;5.57;4.07;;;18.90;99.90;;;;;;5051539;28;20448;-67
2021/07/13 05:27:55;;;;;;;6.23;4.30;;;19.10;99.90;;;;;;5051074;28;20573;-67
2021/07/13 05:30:23;;;;;;;4.27;3.00;;;19.10;99.90;;;;;;5051218;28;20550;-67
2021/07/13 05:32:52;;;;;;;5.70;3.83;;;19.10;99.90;;;;;;5051770;28;20479;-67
2021/07/13 05:35:19;;;;;;;6.30;3.20;;;19.10;99.90;;;;;;5051087;28;20455;-67
2021/07/13 05:37:46;;;;;;;4.60;3.37;;;19.20;99.90;;;;;;5051333;28;20817;-67
2021/07/13 05:40:14;;;;;;;5.23;3.60;;;19.20;99.90;;;;;;5049449;28;21012;-66
2021/07/13 05:42:41;;;;;;;6.97;4.17;;;19.40;99.90;;;;;;5052766;28;20474;-68
2021/07/13 05:45:11;;;;;;;7.00;3.73;;;19.50;99.90;;;;;;5059097;28;21105;-66
2021/07/13 05:47:38;;;;;;;5.60;3.30;;;19.60;99.90;;;;;;5049401;28;21223;-66
2021/07/13 05:50:07;;;;;;;5.17;4.00;;;19.70;99.90;;;;;;5050137;28;20534;-67
2021/07/13 05:52:34;;;;;;;6.83;4.00;;;19.80;99.90;;;;;;5032551;28;20469;-65
2021/07/13 05:55:00;;;;;;;5.93;5.07;;;19.90;99.90;;;;;;5030794;28;20618;-65
2021/07/13 05:57:27;;;;;;;6.10;4.60;;;19.90;99.90;;;;;;5029437;28;20814;-65
2021/07/13 05:59:54;;;;;;;4.57;3.70;;;19.70;99.90;;;;;;5030584;28;20453;-65
2021/07/13 06:02:23;;;;;;;5.03;3.97;;;19.60;99.90;;;;;;5030300;28;20487;-65
2021/07/13 06:04:49;;;;;;;4.90;4.30;;;19.70;99.90;;;;;;5030830;28;20502;-67
2021/07/13 06:07:17;;;;;;;8.25;4.35;;;19.70;99.90;;;;;;5030686;28;20455;-66
2021/07/13 06:09:44;;;;;;;6.47;4.40;;;19.70;99.90;;;;;;5030508;28;20480;-66
2021/07/13 06:12:11;;;;;;;8.10;4.83;;;19.60;99.90;;;;;;5030576;28;20461;-62
2021/07/13 06:14:38;;;;;;;7.40;4.87;;;19.50;99.90;;;;;;5030789;28;20445;-66
2021/07/13 06:17:05;;;;;;;6.00;4.60;;;19.40;99.90;;;;;;5028764;28;20455;-64
2021/07/13 06:19:40;;;;;;;5.63;4.90;;;19.30;99.90;;;;;;5106917;27;20518;-65
2021/07/13 06:22:07;;;;;;;5.67;4.80;;;19.10;99.90;;;;;;5107385;28;20472;-66
2021/07/13 06:24:34;;;;;;;6.17;4.20;;;19.10;99.90;;;;;;5107634;28;20445;-67
2021/07/13 06:27:01;;;;;;;6.80;4.80;;;19.00;99.90;;;;;;5107358;28;20452;-66
2021/07/13 06:29:28;;;;;;;8.47;6.03;;;18.90;99.90;;;;;;5107188;28;20452;-65
2021/07/13 06:31:55;;;;;;;6.10;5.47;;;19.00;99.90;;;;;;5107086;28;20529;-66
2021/07/13 06:34:22;;;;;;;8.23;5.17;;;19.10;99.90;;;;;;5107337;28;20469;-66
2021/07/13 06:36:50;;;;;;;6.10;4.53;;;19.20;99.90;;;;;;5107767;28;20447;-66
2021/07/13 06:39:17;;;;;;;5.40;4.67;;;19.30;99.90;;;;;;5106755;28;20504;-66
2021/07/13 06:41:44;;;;;;;5.67;4.03;;;19.40;99.90;;;;;;5107270;28;20811;-66
2021/07/13 06:44:11;;;;;;;4.83;4.23;;;19.40;99.90;;;;;;5107022;28;20533;-65
2021/07/13 06:46:38;;;;;;;6.97;4.50;;;19.50;99.90;;;;;;5106884;28;20425;-65
2021/07/13 06:49:05;;;;;;;6.23;4.60;;;19.60;99.90;;;;;;5106979;28;20468;-66
2021/07/13 06:51:32;;;;;;;5.57;4.40;;;19.60;99.90;;;;;;5107082;28;20472;-66
2021/07/13 06:54:01;;;;;;;6.33;4.50;;;19.50;99.90;;;;;;5107187;28;20496;-66
2021/07/13 06:56:28;;;;;;;7.17;5.50;;;19.40;99.90;;;;;;5106195;28;20519;-67
2021/07/13 06:58:55;;;;;;;6.20;5.60;;;19.40;99.90;;;;;;5105386;28;20556;-66
2021/07/13 07:01:22;;;;;;;5.87;4.83;;;19.30;99.90;;;;;;5106707;28;20529;-66
2021/07/13 07:03:49;;;;;;;7.10;5.10;;;19.20;99.90;;;;;;5106536;28;20584;-66
2021/07/13 07:06:16;;;;;;;8.97;5.63;;;19.10;99.90;;;;;;5106813;28;20488;-66
2021/07/13 07:08:43;;;;;;;9.37;5.50;;;19.00;99.90;;;;;;5106735;28;20532;-66
2021/07/13 07:11:11;;;;;;;7.73;4.80;;;19.00;99.90;;;;;;5087773;28;20438;-66
2021/07/13 07:13:38;;;;;;;5.23;4.40;;;19.00;99.90;;;;;;5086249;28;20464;-66
2021/07/13 07:16:06;;;;;;;5.93;4.63;;;19.00;99.90;;;;;;5086335;28;21147;-66
2021/07/13 07:18:33;;;;;;;6.87;4.90;;;19.00;99.90;;;;;;5085632;28;20859;-66
2021/07/13 07:21:00;;;;;;;8.43;5.00;;;18.90;99.90;;;;;;5086186;28;20462;-66
2021/07/13 07:23:26;;;;;;;6.83;5.23;;;18.90;99.90;;;;;;5086366;28;20454;-65
2021/07/13 07:25:53;;;;;;;7.57;5.33;;;18.80;99.90;;;;;;5086076;28;21025;-66
2021/07/13 07:28:22;;;;;;;8.30;6.60;;;18.80;99.90;;;;;;5086132;28;20525;-66
2021/07/13 07:30:49;;;;;;;7.13;5.90;;;18.80;99.90;;;;;;5073197;28;20552;-66
2021/07/13 07:33:16;;;;;;;7.87;5.07;;;18.80;99.90;;;;;;5076605;28;20458;-66
2021/07/13 07:35:43;;;;;;;8.20;4.60;;;18.70;99.90;;;;;;5093128;28;20430;-66
2021/07/13 07:38:10;;;;;;;9.10;5.50;;;18.70;99.90;;;;;;5093171;28;20481;-66
2021/07/13 07:40:38;;;;;;;4.83;4.27;;;18.70;99.90;;;;;;5092990;28;20525;-65
2021/07/13 07:43:05;;;;;;;7.63;4.37;;;18.60;99.90;;;;;;5092367;28;20461;-66
2021/07/13 07:45:33;;;;;;;5.70;4.03;;;18.50;99.90;;;;;;5093125;28;20861;-66
2021/07/13 07:48:00;;;;;;;9.90;4.07;;;18.50;99.90;;;;;;5092530;28;20446;-66
2021/07/13 07:50:28;;;;;;;6.37;4.30;;;18.50;99.90;;;;;;5092363;28;20434;-66
2021/07/13 07:52:55;;;;;;;8.50;4.63;;;18.50;99.90;;;;;;5092229;28;21029;-65
2021/07/13 07:55:24;;;;;;;5.93;3.30;;;18.50;99.90;;;;;;5092721;28;20470;-66
2021/07/13 07:57:52;;;;;;;4.80;3.60;;;18.50;99.90;;;;;;5092715;28;20453;-65
2021/07/13 08:00:20;;;;;;;5.80;4.90;;;18.50;99.90;;;;;;5092457;28;20525;-68
2021/07/13 08:02:48;;;;;;;5.30;4.30;;;18.50;99.90;;;;;;5092784;28;20530;-66
2021/07/13 08:05:15;;;;;;;6.90;4.10;;;18.40;99.90;;;;;;5092345;28;20468;-64
2021/07/13 08:07:44;;;;;;;5.30;4.20;;;18.50;99.90;;;;;;5092205;28;20503;-63
2021/07/13 08:10:12;;;;;;;7.03;4.67;;;18.50;99.90;;;;;;5092263;28;20447;-66
2021/07/13 08:12:41;;;;;;;6.47;4.23;;;18.40;99.90;;;;;;5091788;28;20458;-66
2021/07/13 08:15:09;;;;;;;5.47;4.57;;;18.50;99.90;;;;;;5092445;28;20446;-64
2021/07/13 08:17:37;;;;;;;6.50;4.30;;;18.50;99.90;;;;;;5091936;28;20778;-65
2021/07/13 08:20:09;;;;;;;7.73;4.50;;;18.60;99.90;;;;;;5091857;28;20514;-66
2021/07/13 08:22:36;;;;;;;6.50;4.53;;;18.80;99.90;;;;;;5091852;28;20447;-66
2021/07/13 08:25:04;;;;;;;6.50;5.07;;;18.90;99.90;;;;;;5092015;28;20446;-66
2021/07/13 08:27:31;;;;;;;7.03;4.97;;;19.10;99.90;;;;;;5092128;28;20462;-67
2021/07/13 08:29:58;;;;;;;7.53;4.53;;;19.30;99.90;;;;;;5091487;28;20434;-65
2021/07/13 08:32:26;;;;;;;6.83;4.30;;;19.50;99.90;;;;;;5091981;28;20465;-66
2021/07/13 08:34:52;;;;;;;6.30;5.20;;;19.60;99.90;;;;;;5092018;28;20852;-66
2021/07/13 08:37:21;;;;;;;8.37;5.37;;;19.60;99.90;;;;;;5091562;28;20442;-65
2021/07/13 08:39:48;;;;;;;6.53;5.50;;;19.90;99.90;;;;;;5090700;28;20838;-65
2021/07/13 08:42:15;;;;;;;7.13;6.27;;;20.10;99.90;;;;;;5089029;28;20454;-65
2021/07/13 08:44:42;;;;;;;8.50;6.40;;;20.10;99.90;;;;;;5091514;28;20537;-65
2021/07/13 08:47:14;;;;;;;8.23;6.83;;;20.00;99.90;;;;;;5076811;28;20557;-65
2021/07/13 08:49:41;;;;;;;7.83;7.07;;;19.70;99.90;;;;;;5070963;28;20518;-68
2021/07/13 08:52:08;;;;;;;8.37;7.57;;;19.50;99.90;;;;;;5070999;28;20558;-65
2021/07/13 08:54:37;;;;;;;8.90;7.70;;;19.50;99.90;;;;;;5070503;28;20512;-67
2021/07/13 08:57:04;;;;;;;8.30;6.30;;;19.50;99.90;;;;;;5071221;28;20461;-65
2021/07/13 08:59:31;;;;;;;7.80;4.80;;;19.40;99.90;;;;;;5070316;28;20569;-66
2021/07/13 09:01:58;;;;;;;4.30;2.47;;;19.30;99.90;;;;;;5070867;28;21047;-65
2021/07/13 09:04:34;;;;;;;2.50;1.40;;;19.10;99.90;;;;;;5070640;28;20458;-65
2021/07/13 09:07:06;;;;;;;3.37;1.77;;;18.80;99.90;;;;;;5070901;28;20479;-65
2021/07/13 09:09:34;;;;;;;2.53;1.20;;;18.60;99.90;;;;;;5070240;28;20490;-66
2021/07/13 09:12:12;;;;;;;2.20;1.00;;;18.50;99.90;;;;;;5070757;28;21027;-65
2021/07/13 09:14:56;;;;;;;3.67;1.07;;;18.30;99.90;;;;;;5077817;28;20466;-65
2021/07/13 09:17:31;;;;;;;2.00;0.83;;;18.20;99.90;;;;;;5089903;28;20449;-65
2021/07/13 09:19:59;;;;;;;3.20;1.17;;;18.20;99.90;;;;;;5090077;28;20477;-65
2021/07/13 09:22:27;;;;;;;2.93;0.80;;;18.10;99.90;;;;;;5091081;28;20469;-64
2021/07/13 09:24:54;;;;;;;2.30;0.80;;;18.00;99.90;;;;;;5091139;28;20454;-65
2021/07/13 09:27:23;;;;;;;2.40;0.70;;;17.90;99.90;;;;;;5090432;28;20442;-66
2021/07/13 09:29:52;;;;;;;2.40;0.70;;;17.90;99.90;;;;;;5090239;28;20955;-66
2021/07/13 09:32:28;;;;;;;3.03;0.90;;;17.90;99.90;;;;;;5090340;28;20549;-67
2021/07/13 09:34:58;;;;;;;2.10;0.67;;;17.70;99.90;;;;;;5090079;28;20471;-65
2021/07/13 09:37:27;;;;;;;1.97;0.60;;;17.60;99.90;;;;;;5090252;28;20446;-65
2021/07/13 09:39:56;;;;;;;2.47;0.63;;;17.40;99.90;;;;;;5089709;28;20573;-65
2021/07/13 09:42:24;;;;;;;2.10;0.50;;;17.30;99.90;;;;;;5090182;28;20470;-65
2021/07/13 09:44:51;;;;;;;1.80;0.50;;;17.30;99.90;;;;;;5090092;28;20443;-66
2021/07/13 09:47:29;;;;;;;2.00;0.50;;;17.10;99.90;;;;;;5089996;28;20442;-65
2021/07/13 09:49:58;;;;;;;2.67;0.57;;;16.80;99.90;;;;;;5090209;28;20452;-65
2021/07/13 09:52:26;;;;;;;2.93;0.57;;;16.60;99.90;;;;;;5089932;28;20458;-65
2021/07/13 09:54:53;;;;;;;2.47;0.60;;;16.50;99.90;;;;;;5090569;28;20445;-66
2021/07/13 09:57:22;;;;;;;2.50;0.60;;;16.40;99.90;;;;;;5089946;28;20448;-66
2021/07/13 09:59:52;;;;;;;2.97;0.70;;;16.40;99.90;;;;;;5089688;28;20901;-65
2021/07/13 10:02:23;;;;;;;2.10;0.60;;;16.40;99.90;;;;;;5089958;28;20470;-66
2021/07/13 10:04:50;;;;;;;4.53;0.90;;;16.50;99.90;;;;;;5090158;28;20529;-66
2021/07/13 10:07:18;;;;;;;2.00;0.67;;;16.50;99.90;;;;;;5089833;28;20442;-65
2021/07/13 10:09:48;;;;;;;4.17;0.70;;;16.50;99.90;;;;;;5089473;28;20488;-66
2021/07/13 10:12:16;;;;;;;1.97;0.70;;;16.50;99.90;;;;;;5089671;28;20473;-66
2021/07/13 10:14:45;;;;;;;4.03;0.80;;;16.40;99.90;;;;;;5089620;28;20952;-65
2021/07/13 10:17:14;;;;;;;1.80;0.60;;;16.40;99.90;;;;;;5089721;28;20453;-66
2021/07/13 10:19:47;;;;;;;4.70;0.80;;;16.40;99.90;;;;;;5089624;28;20847;-66
2021/07/13 10:22:16;;;;;;;4.27;0.50;;;16.40;99.90;;;;;;5089768;28;20477;-67
2021/07/13 10:24:45;;;;;;;3.63;0.60;;;16.40;99.90;;;;;;5089649;28;20453;-66
2021/07/13 10:27:16;;;;;;;3.00;0.70;;;16.40;99.90;;;;;;5089705;28;20446;-65
2021/07/13 10:29:44;;;;;;;2.87;0.60;;;16.30;99.90;;;;;;5089431;28;20549;-66
2021/07/13 10:32:32;;;;;;;2.57;0.63;;;16.30;99.90;;;;;;5089630;28;20886;-67
2021/07/13 10:35:02;;;;;;;5.50;0.70;;;16.40;99.90;;;;;;5089655;28;20460;-67
2021/07/13 10:37:31;;;;;;;3.60;0.83;;;16.60;99.90;;;;;;5089673;28;20457;-65
2021/07/13 10:40:00;;;;;;;2.00;0.80;;;16.70;99.90;;;;;;5089009;28;21100;-66
2021/07/13 10:42:56;;;;;;;3.27;0.60;;;16.80;99.90;;;;;;5089431;28;20519;-66
2021/07/13 10:45:26;;;;;;;3.10;0.80;;;16.90;99.90;;;;;;5053350;28;21024;-66
2021/07/13 10:48:06;;;;;;;2.73;0.80;;;16.90;99.90;;;;;;5089658;28;20476;-66
2021/07/13 10:50:53;;;;;;;1.90;0.83;;;17.10;99.90;;;;;;5089140;28;20452;-66
2021/07/13 10:53:24;;;;;;;2.30;0.67;;;17.00;99.90;;;;;;5089502;28;20537;-66
2021/07/13 10:55:58;;;;;;;2.70;0.80;;;16.90;99.90;;;;;;5089558;28;20954;-67
2021/07/13 10:58:45;;;;;;;2.63;0.80;;;16.80;99.90;;;;;;5089317;28;21018;-66
2021/07/13 11:01:26;;;;;;;2.30;0.60;;;16.70;99.90;;;;;;5089307;28;20438;-66
2021/07/13 11:04:02;;;;;;;2.10;0.60;;;16.60;99.90;;;;;;5089223;28;20474;-66
2021/07/13 11:06:57;;;;;;;2.23;0.70;;;16.50;99.90;;;;;;5093201;28;20449;-67
2021/07/13 11:09:30;;;;;;;4.93;0.60;;;16.50;99.90;;;;;;5056503;28;20495;-66
2021/07/13 11:12:18;;;;;;;2.50;0.80;;;16.50;99.90;;;;;;5093174;28;20877;-66
2021/07/13 11:14:59;;;;;;;4.30;0.70;;;16.70;99.90;;;;;;5088021;28;20462;-66
2021/07/13 11:17:31;;;;;;;2.00;0.60;;;16.90;99.90;;;;;;5092798;28;20469;-67
2021/07/13 11:20:09;;;;;;;4.57;0.80;;;17.60;99.90;;;;;;5092479;28;21218;-67
2021/07/13 11:22:39;;;;;;;2.20;0.73;;;18.40;99.90;;;;;;5093055;28;20468;-67
2021/07/13 11:25:07;;;;;;;3.27;1.00;;;18.70;99.90;;;;;;5092858;28;20469;-67
2021/07/13 11:27:35;;;;;;;2.23;0.90;;;18.70;99.90;;;;;;5092528;28;20489;-68
2021/07/13 11:30:03;;;;;;;2.33;0.80;;;18.40;99.90;;;;;;5092717;28;20450;-67
2021/07/13 11:32:30;;;;;;;2.87;0.90;;;18.20;99.90;;;;;;5092706;28;20556;-67
2021/07/13 11:34:57;;;;;;;2.87;0.80;;;18.20;99.90;;;;;;5092519;28;20441;-66
2021/07/13 11:37:27;;;;;;;2.87;1.10;;;18.00;99.90;;;;;;5091439;28;20541;-67
2021/07/13 11:40:01;;;;;;;2.90;1.00;;;17.90;99.90;;;;;;5091736;28;20484;-67
2021/07/13 11:42:27;;;;;;;2.30;0.90;;;17.80;99.90;;;;;;5092385;28;20846;-66
2021/07/13 11:45:02;;;;;;;2.10;0.87;;;17.70;99.90;;;;;;5092503;28;20450;-67
2021/07/13 11:47:29;;;;;;;2.33;0.73;;;17.60;99.90;;;;;;5092757;28;20471;-66
2021/07/13 11:49:56;;;;;;;3.20;0.80;;;17.50;99.90;;;;;;5089660;28;20446;-66
2021/07/13 11:52:24;;;;;;;2.90;0.97;;;17.40;99.90;;;;;;5071947;28;20467;-66
2021/07/13 11:54:57;;;;;;;3.13;0.70;;;17.30;99.90;;;;;;5072108;28;20477;-68
2021/07/13 11:57:24;;;;;;;2.67;0.77;;;17.30;99.90;;;;;;5071990;28;20455;-66
2021/07/13 11:59:51;;;;;;;3.23;1.17;;;17.40;99.90;;;;;;5071540;28;20474;-67
2021/07/13 12:02:19;;;;;;;5.20;0.80;;;17.50;99.90;;;;;;5071564;28;20558;-65
2021/07/13 12:04:50;;;;;;;3.40;1.03;;;17.50;99.90;;;;;;5072053;28;20541;-66
2021/07/13 12:07:19;;;;;;;3.40;1.17;;;17.60;99.90;;;;;;5071914;28;20451;-66
2021/07/13 12:09:46;;;;;;;2.10;0.70;;;17.90;99.90;;;;;;5071510;28;20454;-67
2021/07/13 12:12:16;;;;;;;2.83;1.00;;;18.00;99.90;;;;;;5071191;28;20520;-66
2021/07/13 12:14:46;;;;;;;2.27;0.80;;;18.20;99.90;;;;;;5071208;28;20443;-65
2021/07/13 12:17:14;;;;;;;2.17;0.80;;;18.40;99.90;;;;;;5070220;28;20447;-65
2021/07/13 12:19:43;;;;;;;2.77;0.77;;;18.60;99.90;;;;;;5071390;28;20483;-66
2021/07/13 12:22:13;;;;;;;2.80;0.80;;;18.80;99.90;;;;;;5071652;28;20474;-65
2021/07/13 12:24:43;;;;;;;2.70;0.90;;;19.20;99.90;;;;;;5072120;28;20538;-65
2021/07/13 12:27:11;;;;;;;2.57;0.80;;;19.40;99.90;;;;;;5072078;28;20458;-70
2021/07/13 12:29:42;;;;;;;3.67;0.70;;;19.20;99.90;;;;;;5071560;28;20490;-65
2021/07/13 12:32:17;;;;;;;2.00;0.70;;;19.40;99.90;;;;;;5071926;28;20906;-65
2021/07/13 12:34:45;;;;;;;3.70;0.90;;;19.50;99.90;;;;;;5071949;28;20450;-66
2021/07/13 12:37:14;;;;;;;2.90;0.70;;;19.70;99.90;;;;;;5071402;28;20961;-66
2021/07/13 12:39:44;;;;;;;3.70;1.00;;;20.00;99.90;;;;;;5071016;28;20856;-66
2021/07/13 12:42:16;;;;;;;4.10;1.00;;;20.10;99.90;;;;;;5071096;28;20466;-65
2021/07/13 12:44:49;;;;;;;4.80;1.20;;;20.30;99.90;;;;;;5071684;28;20980;-67
2021/07/13 12:47:38;;;;;;;4.30;0.90;;;20.10;99.90;;;;;;5071596;28;20451;-65
2021/07/13 12:50:21;;;;;;;3.00;0.90;;;20.10;99.90;;;;;;5071149;28;20446;-65
2021/07/13 12:53:00;;;;;;;2.23;0.80;;;19.80;99.90;;;;;;5069362;28;20482;-67
2021/07/13 12:55:32;;;;;;;2.53;0.60;;;19.50;99.90;;;;;;5070906;28;20443;-66